METAR Data
IDs: Format: Raw Decoded Include TAF

Data at: 2005 UTC 18 Oct 2018

KJDD 181955Z AUTO 08005KT 10SM OVC060 18/10 A3032 RMK AO2
KJDD 181935Z AUTO 08004KT 10SM OVC060 18/11 A3033 RMK AO2
KJDD 181915Z AUTO 06004KT 10SM SCT048 OVC050 18/10 A3034 RMK AO2
KJDD 181855Z AUTO 07006KT 10SM BKN048 OVC050 18/10 A3035 RMK AO2
KJDD 181835Z AUTO 05007KT 010V080 10SM OVC050 18/10 A3036 RMK AO2
KJDD 181815Z AUTO 06005KT 10SM OVC050 18/11 A3036 RMK AO2
KJDD 181755Z AUTO 06007KT 050V120 10SM OVC050 18/10 A3037 RMK AO2
KJDD 181735Z AUTO 07005KT 10SM OVC050 18/11 A3038 RMK AO2
KJDD 181715Z AUTO 07006KT 10SM OVC050 17/10 A3039 RMK AO2
KJDD 181655Z AUTO 08004KT 10SM OVC050 17/11 A3039 RMK AO2
KJDD 181635Z AUTO 07004KT 10SM OVC050 17/11 A3040 RMK AO2
KJDD 181615Z AUTO 08006KT 10SM OVC050 17/11 A3040 RMK AO2
KJDD 181555Z AUTO 06004KT 10SM OVC050 16/11 A3040 RMK AO2
KJDD 181535Z AUTO 07005KT 10SM OVC050 16/11 A3040 RMK AO2
KJDD 181515Z AUTO 07006KT 10SM OVC050 15/11 A3041 RMK AO2
KJDD 181455Z AUTO 06005KT 10SM OVC050 15/11 A3040 RMK AO2
KJDD 181435Z AUTO 08005KT 10SM OVC050 15/11 A3039 RMK AO2
KJDD 181415Z AUTO 06006KT 10SM OVC050 14/11 A3039 RMK AO2
KJDD 181355Z AUTO 06005KT 10SM OVC050 14/11 A3039 RMK AO2
KJDD 181335Z AUTO 07005KT 10SM OVC050 14/10 A3038 RMK AO2
KJDD 181315Z AUTO 07004KT 10SM OVC050 14/10 A3037 RMK AO2
KJDD 181255Z AUTO 07004KT 10SM OVC050 14/10 A3037 RMK AO2
KJDD 181235Z AUTO 06003KT 10SM OVC050 14/10 A3037 RMK AO2
KJDD 181215Z AUTO 00000KT 10SM OVC055 14/10 A3037 RMK AO2
KJDD 181155Z AUTO 06004KT 10SM OVC055 14/10 A3036 RMK AO2
KJDD 181135Z AUTO 04003KT 10SM BKN055 OVC100 13/10 A3036 RMK AO2
KJDD 181115Z AUTO 00000KT 10SM OVC100 14/10 A3035 RMK AO2
KJDD 181055Z AUTO 04003KT 10SM OVC100 14/10 A3035 RMK AO2
KJDD 181035Z AUTO 00000KT 10SM SCT050 OVC100 14/10 A3034 RMK AO2
KJDD 181015Z AUTO 06004KT 10SM BKN050 BKN100 13/11 A3034 RMK AO2
KJDD 180955Z AUTO 06004KT 10SM OVC050 13/11 A3034 RMK AO2
KJDD 180935Z AUTO 00000KT 10SM OVC050 13/11 A3035 RMK AO2
KJDD 180915Z AUTO 02004KT 10SM OVC050 13/11 A3035 RMK AO2
KJDD 180855Z AUTO 00000KT 10SM OVC050 13/11 A3035 RMK AO2
KJDD 180835Z AUTO 00000KT 10SM OVC050 13/11 A3035 RMK AO2
KJDD 180815Z AUTO 00000KT 10SM OVC050 13/11 A3036 RMK AO2
KJDD 180755Z AUTO 00000KT 10SM OVC050 13/11 A3036 RMK AO2
KJDD 180735Z AUTO 00000KT 10SM OVC048 13/11 A3036 RMK AO2
KJDD 180715Z AUTO 00000KT 10SM OVC046 13/11 A3036 RMK AO2
KJDD 180655Z AUTO 00000KT 10SM OVC044 12/11 A3036 RMK AO2
KJDD 180635Z AUTO 00000KT 10SM OVC044 12/11 A3035 RMK AO2
KJDD 180615Z AUTO 02003KT 10SM OVC044 12/10 A3036 RMK AO2
KJDD 180555Z AUTO 34003KT 10SM OVC046 12/10 A3036 RMK AO2
KJDD 180535Z AUTO 33003KT 10SM OVC046 12/10 A3036 RMK AO2
KJDD 180515Z AUTO 02003KT 10SM SCT044 OVC070 12/10 A3036 RMK AO2
KJDD 180455Z AUTO 01004KT 10SM SCT055 OVC070 12/10 A3036 RMK AO2
KJDD 180435Z AUTO 02003KT 10SM SCT055 OVC070 12/10 A3037 RMK AO2
KJDD 180415Z AUTO 00000KT 10SM SCT050 OVC070 12/09 A3037 RMK AO2
KJDD 180355Z AUTO 02003KT 10SM OVC070 11/10 A3037 RMK AO2
KJDD 180335Z AUTO 36003KT 10SM OVC070 11/09 A3038 RMK AO2
KJDD 180315Z AUTO 02003KT 10SM OVC070 11/09 A3038 RMK AO2
KJDD 180255Z AUTO 00000KT 10SM SCT060 OVC070 11/09 A3038 RMK AO2
KJDD 180235Z AUTO 00000KT 10SM SCT060 OVC070 11/09 A3038 RMK AO2
KJDD 180215Z AUTO 00000KT 10SM SCT060 OVC070 11/08 A3038 RMK AO2
KJDD 180155Z AUTO 00000KT 10SM SCT032 BKN060 OVC080 11/08 A3038 RMK AO2
KJDD 180135Z AUTO 03003KT 10SM SCT032 SCT041 OVC060 11/08 A3039 RMK AO2
KJDD 180115Z AUTO 00000KT 10SM BKN060 OVC090 11/09 A3039 RMK AO2
KJDD 180055Z AUTO 02003KT 10SM SCT060 OVC090 10/09 A3039 RMK AO2
KJDD 180035Z AUTO 02004KT 10SM BKN055 OVC090 10/09 A3038 RMK AO2
KJDD 180015Z AUTO 02004KT 10SM -RA BKN055 OVC095 10/09 A3038 RMK AO2
KJDD 172355Z AUTO 02004KT 10SM -RA BKN055 OVC095 11/09 A3038 RMK AO2 P0002
KJDD 172335Z AUTO 02005KT 10SM -RA SCT033 SCT046 OVC055 11/10 A3038 RMK AO2 P0001
KJDD 172315Z AUTO 01005KT 10SM -RA SCT033 OVC055 12/11 A3038 RMK AO2
KJDD 172255Z AUTO 01005KT 10SM -RA BKN060 OVC075 12/11 A3037 RMK AO2 P0003
KJDD 172235Z AUTO 01003KT 10SM -RA SCT060 BKN070 OVC080 12/11 A3036 RMK AO2 P0002
KJDD 172215Z AUTO 01005KT 10SM RA SCT044 OVC050 12/10 A3036 RMK AO2 P0001
KJDD 172155Z AUTO 01004KT 10SM -RA OVC050 13/10 A3035 RMK AO2
KJDD 172135Z AUTO 01006KT 10SM -RA OVC050 13/10 A3035 RMK AO2
KJDD 172115Z AUTO 36005KT 10SM -RA OVC055 13/10 A3034 RMK AO2 LTG DSNT SE
KJDD 172055Z AUTO 00000KT 10SM -RA OVC055 13/09 A3033 RMK AO2
KJDD 172035Z AUTO 04003KT 10SM SCT050 OVC065 13/08 A3032 RMK AO2
KJDD 172015Z AUTO 06003KT 10SM SCT050 BKN060 OVC085 14/08 A3031 RMK AO2
KJDD 171955Z AUTO 06004KT 10SM BKN050 BKN095 OVC120 14/08 A3031 RMK AO2
KJDD 171935Z AUTO 06006KT 10SM BKN060 OVC120 14/07 A3031 RMK AO2
KJDD 171915Z AUTO 06006KT 10SM BKN070 OVC120 14/08 A3033 RMK AO2
KJDD 171855Z AUTO 04003KT 10SM BKN070 14/07 A3034 RMK AO2
KJDD 171835Z AUTO 05004KT 10SM BKN070 14/07 A3034 RMK AO2
KJDD 171815Z AUTO 08003KT 10SM SCT050 BKN070 14/08 A3035 RMK AO2
KJDD 171755Z AUTO 07007KT 340V110 10SM SCT055 BKN070 13/09 A3035 RMK AO2
KJDD 171735Z AUTO 05005KT 10SM -RA SCT050 OVC080 13/09 A3036 RMK AO2
KJDD 171715Z AUTO 07004KT 10SM -RA SCT037 SCT044 OVC080 12/08 A3036 RMK AO2
KJDD 171655Z AUTO 05005KT 10SM -RA SCT037 BKN044 OVC080 12/09 A3035 RMK AO2 P0001
KJDD 171635Z AUTO 04004KT 10SM -RA SCT046 OVC080 11/09 A3036 RMK AO2
KJDD 171615Z AUTO 04003KT 10SM -RA SCT044 BKN050 OVC080 11/10 A3036 RMK AO2
KJDD 171555Z AUTO 02004KT 11/09 A3036 RMK AO2 P0002
KJDD 171535Z AUTO 00000KT 10SM -RA SCT047 BKN060 OVC070 11/09 A3036 RMK AO2 P0002
KJDD 171515Z AUTO 02003KT 10SM RA SCT060 SCT075 OVC085 10/09 A3036 RMK AO2 P0001
KJDD 171455Z AUTO 02003KT 10SM -RA SCT065 OVC085 10/09 A3035 RMK AO2 P0001
KJDD 171435Z AUTO 00000KT 10SM -RA SCT050 BKN065 OVC085 10/09 A3035 RMK AO2 P0001
KJDD 171415Z AUTO 02003KT 10SM -RA SCT034 BKN075 OVC085 10/09 A3033 RMK AO2
KJDD 171355Z AUTO 00000KT 10SM BKN032 OVC050 10/09 A3033 RMK AO2
KJDD 171335Z AUTO 00000KT 10SM OVC030 10/09 A3032 RMK AO2
KJDD 171315Z AUTO 03003KT 10SM BKN025 OVC031 10/09 A3031 RMK AO2
KJDD 171255Z AUTO 05003KT 10SM OVC025 10/09 A3030 RMK AO2 P0001
KJDD 171235Z AUTO 00000KT 10SM OVC021 10/09 A3030 RMK AO2 P0001
KJDD 171215Z AUTO 03004KT 10SM -RA OVC019 10/09 A3030 RMK AO2 P0001
KJDD 171155Z AUTO 03004KT 10SM RA OVC019 10/08 A3029 RMK AO2 P0004
KJDD 171135Z AUTO 02003KT 10SM -RA OVC021 10/09 A3028 RMK AO2 P0001
KJDD 171115Z AUTO 02003KT 10SM -RA OVC021 10/09 A3028 RMK AO2 P0001
KJDD 171055Z AUTO 00000KT 10SM -RA BKN019 BKN048 BKN080 10/09 A3027 RMK AO2 P0002
KJDD 171035Z AUTO 00000KT 10SM -RA SCT048 SCT075 BKN110 10/09 A3026 RMK AO2 P0001
KJDD 171015Z AUTO 05003KT 10SM -RA SCT029 SCT050 BKN110 11/10 A3025 RMK AO2 P0001
KJDD 170955Z AUTO 04003KT 10SM -RA SCT012 BKN031 OVC080 11/10 A3025 RMK AO2
KJDD 170935Z AUTO 03003KT 10SM BKN017 OVC029 11/10 A3025 RMK AO2
KJDD 170915Z AUTO 00000KT 10SM OVC017 11/10 A3026 RMK AO2
KJDD 170855Z AUTO 00000KT 10SM OVC017 11/10 A3026 RMK AO2
KJDD 170835Z AUTO 02003KT 10SM SCT009 OVC017 11/10 A3026 RMK AO2
KJDD 170815Z AUTO 00000KT 10SM SCT007 BKN015 OVC110 11/10 A3025 RMK AO2